createdAt,value
2023-04-01T00:02:19.485Z,99.90
2023-04-01T00:04:48.270Z,99.90
2023-04-01T00:07:17.108Z,99.90
2023-04-01T00:09:45.796Z,99.90
2023-04-01T00:12:14.627Z,99.90
2023-04-01T00:14:44.792Z,95.30
2023-04-01T00:17:13.501Z,90.90
2023-04-01T00:19:42.257Z,79.70
2023-04-01T00:22:12.763Z,76.30
2023-04-01T00:24:41.546Z,39.00
2023-04-01T00:27:10.241Z,33.40
2023-04-01T00:29:38.977Z,37.80
2023-04-01T00:32:09.167Z,18.10
2023-04-01T00:34:38.068Z,22.50
2023-04-01T00:37:06.878Z,1.00
2023-04-01T00:39:36.776Z,1.00
2023-04-01T00:42:06.120Z,1.00
2023-04-01T00:44:36.668Z,1.00
2023-04-01T00:47:05.538Z,4.10
2023-04-01T00:49:38.629Z,1.00
2023-04-01T00:52:12.531Z,1.00
2023-04-01T00:54:43.313Z,1.00
2023-04-01T00:57:16.642Z,1.00
2023-04-01T00:59:48.651Z,1.00
2023-04-01T01:02:18.739Z,5.30
2023-04-01T01:04:49.012Z,6.50
2023-04-01T01:07:28.684Z,8.10
2023-04-01T01:10:04.165Z,1.00
2023-04-01T01:12:39.387Z,12.70
2023-04-01T01:15:14.701Z,22.70
2023-04-01T01:17:59.259Z,13.70
2023-04-01T01:21:00.152Z,1.00
2023-04-01T01:23:58.158Z,1.00
2023-04-01T01:26:47.075Z,5.70
2023-04-01T01:29:36.549Z,24.10
2023-04-01T01:32:10.662Z,1.00
2023-04-01T01:34:46.581Z,1.00
2023-04-01T01:37:18.979Z,6.10
2023-04-01T01:39:55.618Z,9.50
2023-04-01T01:42:27.539Z,23.50
2023-04-01T01:44:57.490Z,41.70
2023-04-01T01:47:29.716Z,53.50
2023-04-01T01:49:59.232Z,69.00
2023-04-01T01:52:30.622Z,86.90
2023-04-01T01:55:00.849Z,92.70
2023-04-01T01:57:33.034Z,74.30
2023-04-01T02:00:14.028Z,77.70
2023-04-01T02:02:42.962Z,88.10
2023-04-01T02:05:14.145Z,89.20
2023-04-01T02:07:49.418Z,91.70
2023-04-01T02:10:18.989Z,74.20
2023-04-01T02:12:50.570Z,90.70
2023-04-01T02:15:21.335Z,94.60
2023-04-01T02:17:52.402Z,96.20
2023-04-01T02:20:24.368Z,90.80
2023-04-01T02:22:57.045Z,69.70
2023-04-01T02:25:28.827Z,66.00
2023-04-01T02:27:59.240Z,46.70
2023-04-01T02:30:29.174Z,39.10
2023-04-01T02:32:59.420Z,33.90
2023-04-01T02:35:28.937Z,36.80
2023-04-01T02:37:59.282Z,43.30
2023-04-01T02:40:28.504Z,28.60
2023-04-01T02:42:57.262Z,38.50
2023-04-01T02:45:26.141Z,49.60
2023-04-01T02:47:54.924Z,47.60
2023-04-01T02:50:23.980Z,43.90
2023-04-01T02:52:52.662Z,67.40
2023-04-01T02:55:22.977Z,58.60
2023-04-01T02:57:51.693Z,68.90
2023-04-01T03:00:20.745Z,68.00
2023-04-01T03:02:49.608Z,73.60
2023-04-01T03:05:18.621Z,69.20
2023-04-01T03:07:47.534Z,66.70
2023-04-01T03:10:16.450Z,78.50
2023-04-01T03:12:46.650Z,51.00
2023-04-01T03:15:16.588Z,62.30
2023-04-01T03:17:45.992Z,67.80
2023-04-01T03:20:15.159Z,46.10
2023-04-01T03:22:43.945Z,56.70
2023-04-01T03:25:12.902Z,42.40
2023-04-01T03:27:41.582Z,41.80
2023-04-01T03:30:12.734Z,44.60
2023-04-01T03:32:41.466Z,61.70
2023-04-01T03:35:11.597Z,70.70
2023-04-01T03:37:40.525Z,63.10
2023-04-01T03:40:10.197Z,74.60
2023-04-01T03:42:38.879Z,92.30
2023-04-01T03:45:08.643Z,98.20
2023-04-01T03:47:38.854Z,99.90
2023-04-01T03:50:09.289Z,99.90
2023-04-01T03:52:38.028Z,99.90
2023-04-01T03:55:07.771Z,99.90
2023-04-01T03:57:36.529Z,99.90
2023-04-01T04:00:05.586Z,99.90
2023-04-01T04:02:34.449Z,99.90
2023-04-01T04:05:04.905Z,99.90
2023-04-01T04:07:33.825Z,99.90
2023-04-01T04:10:02.644Z,99.90
2023-04-01T04:12:31.422Z,99.90
2023-04-01T04:15:00.136Z,99.90
2023-04-01T04:17:28.901Z,99.90
2023-04-01T04:19:57.626Z,99.90
2023-04-01T04:22:27.748Z,99.90
2023-04-01T04:24:56.665Z,99.90
2023-04-01T04:27:25.388Z,99.90
2023-04-01T04:29:54.084Z,99.90
2023-04-01T04:32:22.859Z,99.90
2023-04-01T04:34:51.606Z,99.90
2023-04-01T04:37:20.263Z,99.90
2023-04-01T04:39:50.524Z,99.90
2023-04-01T04:42:19.189Z,99.90
2023-04-01T04:44:47.896Z,99.90
2023-04-01T04:47:16.764Z,99.90
2023-04-01T04:49:45.731Z,99.90
2023-04-01T04:52:14.502Z,99.90
2023-04-01T04:54:43.245Z,99.90
2023-04-01T04:57:13.390Z,99.90
2023-04-01T04:59:42.194Z,99.90
2023-04-01T05:02:10.958Z,99.90
2023-04-01T05:04:39.974Z,99.90
2023-04-01T05:07:08.634Z,99.90
2023-04-01T05:09:37.376Z,99.90
2023-04-01T05:12:06.504Z,99.90
2023-04-01T05:14:36.928Z,99.90
2023-04-01T05:17:05.890Z,99.90
2023-04-01T05:19:34.958Z,99.90
2023-04-01T05:22:03.700Z,99.90
2023-04-01T05:24:32.900Z,99.90
2023-04-01T05:27:02.195Z,99.90
2023-04-01T05:29:31.031Z,99.90
2023-04-01T05:32:01.276Z,99.90
2023-04-01T05:34:29.973Z,99.90
2023-04-01T05:36:58.689Z,99.90
2023-04-01T05:39:27.520Z,99.90
2023-04-01T05:41:56.272Z,99.90
2023-04-01T05:44:25.021Z,99.90
2023-04-01T05:46:53.750Z,99.90
2023-04-01T05:49:24.246Z,99.90
2023-04-01T05:51:54.182Z,99.90
2023-04-01T05:54:23.332Z,99.90
2023-04-01T05:56:52.190Z,99.90
2023-04-01T05:59:20.991Z,99.90
2023-04-01T06:01:49.726Z,99.90
2023-04-01T06:04:20.209Z,99.90
2023-04-01T06:06:50.469Z,99.90
2023-04-01T06:09:22.590Z,99.90
2023-04-01T06:12:10.561Z,99.90
2023-04-01T06:14:49.024Z,99.90
2023-04-01T06:17:29.630Z,99.90
2023-04-01T06:20:04.848Z,99.90
2023-04-01T06:22:51.221Z,99.90
2023-04-01T06:25:42.476Z,99.90
2023-04-01T06:28:47.619Z,99.90
2023-04-01T06:31:28.796Z,99.90
2023-04-01T06:34:17.047Z,99.90
2023-04-01T06:37:17.432Z,99.90
2023-04-01T06:40:14.912Z,99.90
2023-04-01T06:42:57.416Z,99.90
2023-04-01T06:45:38.510Z,99.90
2023-04-01T06:48:19.170Z,99.90
2023-04-01T06:50:57.748Z,99.90
2023-04-01T06:53:34.967Z,99.90
2023-04-01T06:56:10.493Z,99.90
2023-04-01T06:58:44.180Z,99.90
2023-04-01T07:01:17.120Z,99.90
2023-04-01T07:03:51.958Z,99.90
2023-04-01T07:06:29.276Z,99.90
2023-04-01T07:09:05.529Z,99.90
2023-04-01T07:11:39.683Z,99.90
2023-04-01T07:14:17.774Z,99.90
2023-04-01T07:16:49.522Z,99.90
2023-04-01T07:19:24.836Z,99.90
2023-04-01T07:21:57.705Z,99.90
2023-04-01T07:24:29.983Z,99.90
2023-04-01T07:27:00.757Z,99.90
2023-04-01T07:29:29.539Z,99.90
2023-04-01T07:32:27.115Z,99.90
2023-04-01T07:35:09.401Z,99.90
2023-04-01T07:37:48.410Z,99.90
2023-04-01T07:40:29.262Z,99.90
2023-04-01T07:43:19.885Z,99.90
2023-04-01T07:45:55.728Z,99.90
2023-04-01T07:48:34.287Z,99.90
2023-04-01T07:51:06.027Z,99.90
2023-04-01T07:53:40.657Z,99.90
2023-04-01T07:56:13.006Z,99.90
2023-04-01T07:58:55.451Z,99.90
2023-04-01T08:01:32.119Z,99.90
2023-04-01T08:04:21.582Z,99.90
2023-04-01T08:06:59.181Z,99.90
2023-04-01T08:09:33.753Z,99.90
2023-04-01T08:12:15.048Z,99.90
2023-04-01T08:14:57.172Z,99.90
2023-04-01T08:17:33.410Z,99.90
2023-04-01T08:20:26.349Z,99.90
2023-04-01T08:23:03.348Z,99.90
2023-04-01T08:25:35.016Z,99.90
2023-04-01T08:28:12.348Z,99.90
2023-04-01T08:30:46.506Z,99.90
2023-04-01T08:33:20.557Z,99.90
2023-04-01T08:35:54.393Z,99.90
2023-04-01T08:38:28.948Z,99.90
2023-04-01T08:41:02.845Z,99.90
2023-04-01T08:44:01.946Z,99.90
2023-04-01T08:47:08.280Z,99.90
2023-04-01T08:49:57.122Z,99.90
2023-04-01T08:52:37.265Z,99.90
2023-04-01T08:55:31.455Z,99.90
2023-04-01T08:58:26.978Z,99.90
2023-04-01T09:00:59.543Z,99.90
2023-04-01T09:03:47.081Z,99.90
2023-04-01T09:06:35.999Z,99.90
2023-04-01T09:09:34.995Z,99.90
2023-04-01T09:12:37.201Z,99.90
2023-04-01T09:15:38.758Z,99.90
2023-04-01T09:18:32.184Z,99.90
2023-04-01T09:21:32.077Z,97.10
2023-04-01T09:24:35.633Z,99.90
2023-04-01T09:27:11.583Z,95.00
2023-04-01T09:30:18.902Z,93.70
2023-04-01T09:33:07.380Z,45.50
2023-04-01T09:35:44.844Z,45.70
2023-04-01T09:38:24.770Z,83.50
2023-04-01T09:40:59.378Z,40.00
2023-04-01T09:43:41.724Z,99.90
2023-04-01T09:46:18.843Z,90.00
2023-04-01T09:49:32.417Z,1.00
2023-04-01T09:52:16.039Z,17.00
2023-04-01T09:55:00.825Z,75.90
2023-04-01T09:58:06.734Z,66.10
2023-04-01T10:00:56.186Z,85.00
2023-04-01T10:04:03.696Z,99.90
2023-04-01T10:07:21.369Z,99.90
2023-04-01T10:10:26.827Z,93.80
2023-04-01T10:13:26.664Z,99.90
2023-04-01T10:16:22.438Z,99.90
2023-04-01T10:19:16.337Z,98.10
2023-04-01T10:22:17.986Z,70.90
2023-04-01T10:25:19.304Z,37.90
2023-04-01T10:28:19.584Z,1.00
2023-04-01T10:31:17.919Z,1.00
2023-04-01T10:34:21.150Z,26.60
2023-04-01T10:36:57.314Z,24.30
2023-04-01T10:39:55.580Z,17.10
2023-04-01T10:42:53.990Z,7.30
2023-04-01T10:46:02.015Z,41.90
2023-04-01T10:48:57.312Z,73.50
2023-04-01T10:51:54.346Z,99.90
2023-04-01T10:54:48.106Z,99.90
2023-04-01T10:57:44.949Z,99.90
2023-04-01T11:00:55.504Z,99.90
2023-04-01T11:04:05.645Z,98.80
2023-04-01T11:07:07.886Z,76.40
2023-04-01T11:10:21.493Z,4.30
2023-04-01T11:13:24.525Z,1.00
2023-04-01T11:16:18.450Z,1.00
2023-04-01T11:19:32.524Z,99.90
2023-04-01T11:22:42.705Z,99.90
2023-04-01T11:25:49.150Z,1.00
2023-04-01T11:29:00.758Z,99.90
2023-04-01T11:31:46.317Z,99.90
2023-04-01T11:34:25.628Z,99.90
2023-04-01T11:37:05.111Z,99.90
2023-04-01T11:39:45.665Z,1.00
2023-04-01T11:42:31.472Z,27.80
2023-04-01T11:45:14.698Z,99.90
2023-04-01T11:47:57.897Z,99.90
2023-04-01T11:50:40.774Z,99.90
2023-04-01T11:53:29.794Z,1.00
2023-04-01T11:56:11.990Z,1.00
2023-04-01T11:59:08.677Z,1.00
2023-04-01T12:01:49.435Z,1.00
2023-04-01T12:04:46.142Z,1.00
2023-04-01T12:07:26.055Z,1.00
2023-04-01T12:10:04.886Z,1.00
2023-04-01T12:12:54.205Z,58.70
2023-04-01T12:15:35.448Z,99.90
2023-04-01T12:18:15.978Z,99.90
2023-04-01T12:20:54.551Z,99.90
2023-04-01T12:23:38.187Z,99.90
2023-04-01T12:26:35.636Z,99.90
2023-04-01T12:29:21.540Z,21.70
2023-04-01T12:31:58.723Z,99.90
2023-04-01T12:34:59.589Z,99.90
2023-04-01T12:37:38.743Z,99.90
2023-04-01T12:40:31.272Z,1.00
2023-04-01T12:43:17.479Z,1.00
2023-04-01T12:45:54.008Z,99.90
2023-04-01T12:48:54.984Z,99.90
2023-04-01T12:51:44.527Z,1.00
2023-04-01T12:54:55.192Z,99.90
2023-04-01T12:57:43.469Z,99.90
2023-04-01T13:00:29.938Z,1.00
2023-04-01T13:03:18.669Z,1.00
2023-04-01T13:06:21.492Z,99.90
2023-04-01T13:08:59.998Z,99.90
2023-04-01T13:11:42.051Z,1.00
2023-04-01T13:14:47.456Z,99.90
2023-04-01T13:17:23.007Z,1.00
2023-04-01T13:20:04.997Z,1.00
2023-04-01T13:22:50.845Z,69.50
2023-04-01T13:25:29.165Z,99.90
2023-04-01T13:28:05.570Z,1.00
2023-04-01T13:30:42.662Z,99.90
2023-04-01T13:33:19.703Z,87.10
2023-04-01T13:35:55.836Z,99.90
2023-04-01T13:39:00.131Z,1.00
2023-04-01T13:41:41.617Z,1.00
2023-04-01T13:44:16.473Z,99.90
2023-04-01T13:46:57.275Z,1.00
2023-04-01T13:49:49.795Z,1.00
2023-04-01T13:52:57.052Z,99.90
2023-04-01T13:55:50.401Z,1.00
2023-04-01T13:58:59.260Z,1.00
2023-04-01T14:01:35.897Z,99.90
2023-04-01T14:04:29.918Z,1.00
2023-04-01T14:07:08.816Z,1.00
2023-04-01T14:10:04.547Z,1.00
2023-04-01T14:12:44.700Z,1.00
2023-04-01T14:15:27.599Z,1.00
2023-04-01T14:18:11.947Z,99.90
2023-04-01T14:20:44.086Z,99.90
2023-04-01T14:23:34.417Z,72.10
2023-04-01T14:26:38.075Z,1.00
2023-04-01T14:29:24.043Z,99.90
2023-04-01T14:32:12.635Z,1.00
2023-04-01T14:34:59.549Z,99.90
2023-04-01T14:38:01.206Z,99.90
2023-04-01T14:40:36.377Z,99.90
2023-04-01T14:43:32.070Z,99.90
2023-04-01T14:46:30.765Z,99.90
2023-04-01T14:49:04.468Z,99.90
2023-04-01T14:51:38.522Z,99.90
2023-04-01T14:54:11.516Z,99.90
2023-04-01T14:56:43.123Z,99.90
2023-04-01T14:59:20.142Z,99.90
2023-04-01T15:01:58.685Z,1.00
2023-04-01T15:04:55.647Z,1.00
2023-04-01T15:07:54.659Z,23.60
2023-04-01T15:10:46.294Z,99.90
2023-04-01T15:13:22.091Z,99.90
2023-04-01T15:16:07.549Z,1.00
2023-04-01T15:18:50.436Z,1.00
2023-04-01T15:21:28.871Z,1.00
2023-04-01T15:24:10.232Z,1.00
2023-04-01T15:27:11.710Z,1.00
2023-04-01T15:29:59.124Z,1.00
2023-04-01T15:32:35.919Z,1.00
2023-04-01T15:35:20.245Z,1.00
2023-04-01T15:37:56.940Z,1.00
2023-04-01T15:40:29.648Z,1.00
2023-04-01T15:43:14.166Z,1.00
2023-04-01T15:45:53.974Z,1.00
2023-04-01T15:48:50.866Z,1.00
2023-04-01T15:51:49.518Z,1.00
2023-04-01T15:54:41.795Z,99.90
2023-04-01T15:57:30.180Z,99.90
2023-04-01T16:00:25.422Z,1.00
2023-04-01T16:03:12.477Z,1.00
2023-04-01T16:05:52.334Z,99.90
2023-04-01T16:08:43.863Z,99.90
2023-04-01T16:11:21.768Z,99.90
2023-04-01T16:14:02.356Z,99.90
2023-04-01T16:16:45.284Z,99.90
2023-04-01T16:19:40.699Z,99.90
2023-04-01T16:22:16.360Z,1.00
2023-04-01T16:24:50.848Z,1.00
2023-04-01T16:27:27.836Z,1.00
2023-04-01T16:30:02.870Z,99.90
2023-04-01T16:32:45.054Z,1.00
2023-04-01T16:35:32.428Z,99.90
2023-04-01T16:38:10.063Z,1.00
2023-04-01T16:40:49.205Z,1.00
2023-04-01T16:43:28.098Z,99.90
2023-04-01T16:46:20.617Z,1.00
2023-04-01T16:49:02.587Z,1.00
2023-04-01T16:51:40.425Z,99.90
2023-04-01T16:54:21.375Z,99.90
2023-04-01T16:57:06.788Z,1.00
2023-04-01T16:59:43.862Z,1.00
2023-04-01T17:02:16.221Z,1.00
2023-04-01T17:04:57.971Z,1.00
2023-04-01T17:07:39.775Z,1.00
2023-04-01T17:10:43.950Z,1.00
2023-04-01T17:13:40.292Z,1.00
2023-04-01T17:16:55.505Z,1.00
2023-04-01T17:19:53.577Z,1.00
2023-04-01T17:22:34.306Z,13.50
2023-04-01T17:25:36.475Z,6.30
2023-04-01T17:28:22.192Z,1.00
2023-04-01T17:31:10.122Z,1.00
2023-04-01T17:33:59.436Z,1.00
2023-04-01T17:36:47.269Z,1.00
2023-04-01T17:39:59.921Z,1.00
2023-04-01T17:42:41.786Z,1.00
2023-04-01T17:45:28.362Z,25.20
2023-04-01T17:48:10.401Z,24.40
2023-04-01T17:51:00.066Z,24.60
2023-04-01T17:53:47.893Z,13.20
2023-04-01T17:56:32.660Z,5.10
2023-04-01T17:59:16.746Z,1.00
2023-04-01T18:01:56.392Z,1.00
2023-04-01T18:04:52.645Z,1.00
2023-04-01T18:07:53.156Z,4.80
2023-04-01T18:10:38.995Z,3.60
2023-04-01T18:13:45.148Z,1.00
2023-04-01T18:16:46.220Z,1.00
2023-04-01T18:19:27.473Z,6.60
2023-04-01T18:22:08.953Z,14.70
2023-04-01T18:24:46.528Z,2.40
2023-04-01T18:27:22.316Z,1.00
2023-04-01T18:29:57.270Z,1.00
2023-04-01T18:32:43.726Z,1.00
2023-04-01T18:35:31.073Z,5.10
2023-04-01T18:38:17.749Z,5.60
2023-04-01T18:40:54.587Z,7.80
2023-04-01T18:43:39.362Z,1.00
2023-04-01T18:46:20.248Z,1.00
2023-04-01T18:49:01.307Z,1.00
2023-04-01T18:51:41.959Z,1.00
2023-04-01T18:54:23.933Z,1.00
2023-04-01T18:56:54.084Z,1.00
2023-04-01T18:59:31.026Z,1.00
2023-04-01T19:02:10.482Z,1.00
2023-04-01T19:04:47.929Z,1.00
2023-04-01T19:07:47.391Z,1.00
2023-04-01T19:10:29.974Z,1.00
2023-04-01T19:13:16.775Z,1.00
2023-04-01T19:15:56.430Z,1.00
2023-04-01T19:19:06.455Z,1.00
2023-04-01T19:21:40.577Z,1.00
2023-04-01T19:24:49.064Z,1.00
2023-04-01T19:27:34.216Z,1.00
2023-04-01T19:30:31.308Z,1.00
2023-04-01T19:33:12.017Z,1.00
2023-04-01T19:35:51.345Z,1.00
2023-04-01T19:38:31.944Z,1.00
2023-04-01T19:41:08.120Z,1.00
2023-04-01T19:43:52.104Z,1.00
2023-04-01T19:46:33.050Z,1.00
2023-04-01T19:49:23.291Z,1.00
2023-04-01T19:51:58.261Z,23.80
2023-04-01T19:54:37.378Z,9.50
2023-04-01T19:57:18.561Z,11.20
2023-04-01T19:59:54.893Z,14.00
2023-04-01T20:02:54.455Z,3.00
2023-04-01T20:05:42.116Z,1.20
2023-04-01T20:08:19.860Z,5.40
2023-04-01T20:11:01.408Z,1.00
2023-04-01T20:13:38.155Z,12.10
2023-04-01T20:16:12.095Z,18.70
2023-04-01T20:18:54.806Z,9.80
2023-04-01T20:21:38.452Z,21.40
2023-04-01T20:24:23.734Z,17.50
2023-04-01T20:27:02.485Z,8.10
2023-04-01T20:29:44.644Z,1.00
2023-04-01T20:32:41.619Z,1.00
2023-04-01T20:35:38.696Z,1.00
2023-04-01T20:38:33.392Z,1.00
2023-04-01T20:41:07.407Z,1.00
2023-04-01T20:43:48.645Z,1.00
2023-04-01T20:46:25.140Z,1.00
2023-04-01T20:49:39.957Z,1.00
2023-04-01T20:52:22.590Z,1.00
2023-04-01T20:55:10.567Z,1.00
2023-04-01T20:57:46.673Z,1.00
2023-04-01T21:00:31.411Z,9.10
2023-04-01T21:03:16.003Z,15.50
2023-04-01T21:06:06.253Z,1.00
2023-04-01T21:08:53.445Z,20.30
2023-04-01T21:11:30.660Z,44.60
2023-04-01T21:14:13.717Z,39.90
2023-04-01T21:16:51.788Z,29.80
2023-04-01T21:19:42.096Z,22.60
2023-04-01T21:22:39.284Z,22.80
2023-04-01T21:25:37.248Z,38.10
2023-04-01T21:28:38.195Z,43.80
2023-04-01T21:31:18.482Z,55.30
2023-04-01T21:34:11.856Z,38.50
2023-04-01T21:37:00.593Z,82.60
2023-04-01T21:39:55.494Z,88.30
2023-04-01T21:42:39.660Z,99.90
2023-04-01T21:45:27.513Z,99.90
2023-04-01T21:48:38.627Z,99.90
2023-04-01T21:51:35.199Z,99.90
2023-04-01T21:54:38.130Z,99.90
2023-04-01T21:57:41.629Z,99.90
2023-04-01T22:00:20.204Z,99.90
2023-04-01T22:03:26.787Z,99.90
2023-04-01T22:06:17.204Z,99.90
2023-04-01T22:08:59.159Z,99.90
2023-04-01T22:11:39.148Z,99.40
2023-04-01T22:14:18.918Z,99.90
2023-04-01T22:16:55.197Z,99.90
2023-04-01T22:19:30.645Z,86.50
2023-04-01T22:22:05.023Z,83.90
2023-04-01T22:24:43.175Z,68.10
2023-04-01T22:27:23.415Z,66.80
2023-04-01T22:30:06.388Z,51.40
2023-04-01T22:32:40.722Z,31.90
2023-04-01T22:35:14.050Z,45.30
2023-04-01T22:37:49.950Z,55.30
2023-04-01T22:40:27.946Z,76.80
2023-04-01T22:43:01.934Z,98.00
2023-04-01T22:45:58.533Z,79.00
2023-04-01T22:48:34.207Z,84.70
2023-04-01T22:51:12.334Z,73.80
2023-04-01T22:53:53.067Z,98.40
2023-04-01T22:56:26.221Z,99.90
2023-04-01T22:59:02.420Z,95.00
2023-04-01T23:01:38.232Z,90.70
2023-04-01T23:04:08.452Z,90.00
2023-04-01T23:06:44.240Z,78.60
2023-04-01T23:09:17.099Z,64.60
2023-04-01T23:11:51.174Z,52.80
2023-04-01T23:14:48.797Z,61.60
2023-04-01T23:17:44.971Z,58.00
2023-04-01T23:20:32.369Z,92.90
2023-04-01T23:23:22.972Z,91.90
2023-04-01T23:26:03.531Z,95.60
2023-04-01T23:28:46.326Z,95.90
2023-04-01T23:31:36.731Z,99.90
2023-04-01T23:34:38.344Z,99.90
2023-04-01T23:37:11.064Z,99.90
2023-04-01T23:39:42.465Z,99.90
2023-04-01T23:42:17.849Z,99.90
2023-04-01T23:44:47.313Z,99.90
2023-04-01T23:47:20.378Z,97.80
2023-04-01T23:49:53.316Z,90.40
2023-04-01T23:52:25.936Z,99.90
2023-04-01T23:54:58.560Z,99.90
2023-04-01T23:57:31.577Z,99.90
